Time;durP1;ratioP1;P1;durP2;ratioP2;P2;SDS_P1;SDS_P2;PMS_P1;PMS_P2;Temp;Humidity;BMP_temperature;BMP_pressure;BME280_temperature;BME280_humidity;BME280_pressure;Samples;Min_cycle;Max_cycle;Signal;HPM_P1;HPM_P2
2021/03/28 00:00:00;;;;;;;11.40;3.37;;;7.20;91.20;;;;;;5031886;28;20084;-84
2021/03/28 00:02:31;;;;;;;9.55;3.17;;;7.20;91.30;;;;;;5032033;28;20021;-84
2021/03/28 00:05:08;;;;;;;11.70;3.38;;;7.20;91.50;;;;;;5033009;28;20025;-84
2021/03/28 00:07:48;;;;;;;12.85;3.90;;;7.20;91.50;;;;;;5031827;28;20017;-84
2021/03/28 00:10:41;;;;;;;11.35;3.33;;;7.20;91.60;;;;;;5031930;28;20469;-84
2021/03/28 00:13:20;;;;;;;23.42;4.82;;;7.20;91.70;;;;;;5033263;28;20037;-84
2021/03/28 00:15:56;;;;;;;13.52;4.38;;;7.20;91.80;;;;;;5031653;28;20029;-84
2021/03/28 00:18:27;;;;;;;11.13;4.30;;;7.20;91.90;;;;;;5031801;28;20032;-84
2021/03/28 00:21:08;;;;;;;14.45;4.53;;;7.20;92.00;;;;;;5031724;28;20025;-84
2021/03/28 00:23:44;;;;;;;15.32;5.03;;;7.20;92.00;;;;;;5037793;28;20043;-84
2021/03/28 00:26:30;;;;;;;15.90;4.80;;;7.30;92.10;;;;;;5038243;28;20017;-84
2021/03/28 00:29:25;;;;;;;17.50;5.55;;;7.30;92.10;;;;;;5039387;28;20079;-84
2021/03/28 00:32:04;;;;;;;19.17;6.35;;;7.30;92.30;;;;;;5038326;28;20065;-84
2021/03/28 00:34:31;;;;;;;15.13;5.53;;;7.20;92.50;;;;;;5038081;28;20187;-83
2021/03/28 00:37:09;;;;;;;16.40;5.57;;;7.20;92.60;;;;;;5039450;28;20381;-84
2021/03/28 00:39:53;;;;;;;16.70;5.47;;;7.20;92.50;;;;;;5037863;28;20038;-84
2021/03/28 00:42:45;;;;;;;14.50;5.32;;;7.20;92.60;;;;;;5039539;28;20048;-84
2021/03/28 00:45:36;;;;;;;17.70;5.38;;;7.20;92.80;;;;;;5037704;28;20037;-84
2021/03/28 00:48:13;;;;;;;20.10;5.50;;;7.20;92.80;;;;;;5039337;28;20021;-83
2021/03/28 00:50:55;;;;;;;17.48;4.43;;;7.20;93.00;;;;;;5038118;28;20128;-84
2021/03/28 00:53:42;;;;;;;16.23;3.88;;;7.20;93.00;;;;;;5038200;28;20120;-84
2021/03/28 00:56:27;;;;;;;14.10;4.82;;;7.20;93.00;;;;;;5039137;28;20029;-83
2021/03/28 00:59:06;;;;;;;14.82;4.30;;;7.20;93.50;;;;;;5038102;28;20029;-84
2021/03/28 01:02:16;;;;;;;12.38;3.63;;;7.20;93.40;;;;;;5039100;28;20108;-84
2021/03/28 01:05:00;;;;;;;12.68;3.65;;;7.20;93.40;;;;;;5037849;28;20503;-83
2021/03/28 01:07:41;;;;;;;16.00;3.78;;;7.20;93.60;;;;;;5039260;28;20481;-84
2021/03/28 01:11:00;;;;;;;18.25;4.20;;;7.10;93.90;;;;;;5037918;28;20036;-84
2021/03/28 01:13:59;;;;;;;13.07;3.28;;;7.00;94.00;;;;;;4997740;28;20069;-83
2021/03/28 01:17:02;;;;;;;16.17;3.53;;;7.00;94.40;;;;;;5038801;28;20096;-84
2021/03/28 01:19:28;;;;;;;12.30;3.13;;;7.00;94.50;;;;;;5037784;28;20063;-84
2021/03/28 01:22:09;;;;;;;7.18;2.75;;;6.90;94.80;;;;;;5037815;28;20021;-84
2021/03/28 01:24:49;;;;;;;12.05;3.17;;;6.90;94.90;;;;;;5037703;28;20048;-84
2021/03/28 01:27:45;;;;;;;10.23;3.35;;;6.90;95.20;;;;;;5037867;28;20076;-84
2021/03/28 01:30:15;;;;;;;10.70;2.65;;;6.90;95.30;;;;;;5038842;28;20075;-84
2021/03/28 01:32:56;;;;;;;13.90;2.63;;;6.80;95.50;;;;;;5037659;28;20040;-84
2021/03/28 01:35:26;;;;;;;17.85;3.75;;;6.90;95.60;;;;;;5034864;28;20022;-84
2021/03/28 01:38:17;;;;;;;13.18;3.20;;;6.80;95.70;;;;;;5034526;28;20026;-84
2021/03/28 01:41:18;;;;;;;14.63;3.88;;;6.80;95.90;;;;;;5025962;28;20534;-84
2021/03/28 01:44:16;;;;;;;9.75;2.53;;;6.90;96.00;;;;;;5035379;28;20485;-84
2021/03/28 01:47:10;;;;;;;11.32;2.58;;;6.80;96.30;;;;;;5035558;28;20060;-84
2021/03/28 01:49:59;;;;;;;12.43;2.85;;;6.80;96.60;;;;;;5034399;28;20458;-84
2021/03/28 01:52:42;;;;;;;10.63;2.30;;;6.80;96.80;;;;;;5034426;28;20025;-84
2021/03/28 01:55:45;;;;;;;13.98;2.42;;;6.70;96.90;;;;;;5034130;28;20022;-84
2021/03/28 01:58:25;;;;;;;13.23;2.67;;;6.80;97.00;;;;;;5034142;28;20061;-84
2021/03/28 02:01:16;;;;;;;17.80;3.20;;;6.80;97.00;;;;;;5034000;28;20034;-84
2021/03/28 02:03:42;;;;;;;9.98;2.42;;;6.80;97.10;;;;;;5035394;28;20024;-84
2021/03/28 02:06:32;;;;;;;14.63;2.50;;;6.80;97.10;;;;;;5033889;28;20025;-84
2021/03/28 02:09:00;;;;;;;;;;;6.80;97.10;;;;;;5034466;28;20107;-84
2021/03/28 02:11:28;;;;;;;12.82;2.90;;;6.70;97.20;;;;;;5035250;28;19912;-84
2021/03/28 02:14:26;;;;;;;15.57;2.85;;;6.70;97.50;;;;;;5033819;28;20025;-84
2021/03/28 02:17:24;;;;;;;16.98;3.33;;;6.80;97.40;;;;;;5033310;28;20045;-84
2021/03/28 02:20:22;;;;;;;13.13;2.63;;;6.80;97.40;;;;;;5033694;28;20033;-84
2021/03/28 02:23:20;;;;;;;13.43;2.97;;;6.80;97.50;;;;;;5034983;28;20159;-84
2021/03/28 02:26:05;;;;;;;11.38;2.58;;;6.80;97.70;;;;;;5031536;28;20030;-84
2021/03/28 02:28:43;;;;;;;13.35;2.28;;;6.80;98.00;;;;;;5033790;28;20025;-84
2021/03/28 02:31:24;;;;;;;9.02;2.20;;;6.80;98.10;;;;;;5033659;28;20060;-84
2021/03/28 02:34:08;;;;;;;12.05;2.20;;;6.80;98.20;;;;;;5033420;28;20083;-84
2021/03/28 02:36:55;;;;;;;12.93;2.60;;;6.80;98.20;;;;;;5033469;28;20075;-84
2021/03/28 02:39:47;;;;;;;16.17;3.35;;;6.80;98.30;;;;;;5033304;28;20049;-84
2021/03/28 02:42:25;;;;;;;16.20;2.75;;;6.80;98.40;;;;;;5033503;28;20041;-83
2021/03/28 02:45:16;;;;;;;12.82;2.58;;;6.80;98.50;;;;;;5034170;28;20029;-84
2021/03/28 02:47:51;;;;;;;12.48;3.35;;;6.80;98.50;;;;;;5034188;28;20026;-84
2021/03/28 02:50:16;;;;;;;14.48;2.80;;;6.80;98.70;;;;;;5033234;28;20051;-84
2021/03/28 02:53:00;;;;;;;11.75;2.60;;;6.80;98.80;;;;;;5033311;28;20560;-84
2021/03/28 02:55:29;;;;;;;10.75;3.08;;;6.90;98.80;;;;;;5032730;28;20026;-83
2021/03/28 02:58:04;;;;;;;8.35;2.63;;;6.80;98.90;;;;;;5033036;28;20092;-84
2021/03/28 03:00:35;;;;;;;10.70;2.47;;;6.80;98.90;;;;;;5034000;28;20037;-84
2021/03/28 03:03:26;;;;;;;14.23;3.20;;;6.80;99.00;;;;;;5032759;28;20017;-84
2021/03/28 03:06:18;;;;;;;16.95;2.28;;;6.80;98.90;;;;;;5033950;28;20021;-84
2021/03/28 03:09:09;;;;;;;12.80;2.20;;;6.70;99.00;;;;;;5032890;28;20385;-84
2021/03/28 03:12:06;;;;;;;10.75;2.70;;;6.70;99.10;;;;;;5032779;28;20025;-84
2021/03/28 03:14:52;;;;;;;10.27;2.28;;;6.70;99.10;;;;;;5032742;28;20030;-83
2021/03/28 03:17:56;;;;;;;10.55;2.95;;;6.70;99.20;;;;;;5012897;28;20026;-84
2021/03/28 03:20:59;;;;;;;11.35;2.75;;;6.70;99.30;;;;;;4999201;28;20034;-84
2021/03/28 03:24:10;;;;;;;12.13;2.53;;;6.60;99.40;;;;;;5029320;28;20109;-84
2021/03/28 03:27:00;;;;;;;10.50;2.80;;;6.60;99.50;;;;;;5029082;28;20029;-84
2021/03/28 03:29:53;;;;;;;15.68;3.88;;;6.60;99.60;;;;;;5029116;28;20029;-84
2021/03/28 03:32:43;;;;;;;15.13;2.58;;;6.50;99.80;;;;;;5014026;28;20022;-84
2021/03/28 03:35:35;;;;;;;10.02;2.03;;;6.50;99.90;;;;;;5029147;28;20022;-84
2021/03/28 03:38:27;;;;;;;9.32;2.17;;;6.50;99.90;;;;;;5028989;28;20580;-84
2021/03/28 03:41:05;;;;;;;12.98;2.85;;;6.50;99.90;;;;;;5028853;28;20552;-84
2021/03/28 03:43:58;;;;;;;13.73;3.08;;;6.50;99.90;;;;;;5029014;28;20029;-84
2021/03/28 03:47:02;;;;;;;10.45;2.65;;;6.50;99.90;;;;;;4988711;28;20394;-84
2021/03/28 03:49:53;;;;;;;10.18;2.63;;;6.50;99.90;;;;;;4952845;29;20078;-84
2021/03/28 03:52:48;;;;;;;11.60;2.42;;;6.60;99.90;;;;;;4953273;29;20019;-84
2021/03/28 03:55:42;;;;;;;10.63;3.35;;;6.60;99.90;;;;;;5003706;28;20038;-84
2021/03/28 03:58:33;;;;;;;13.75;2.65;;;6.60;99.90;;;;;;5028408;28;20418;-84
2021/03/28 04:01:16;;;;;;;12.68;2.80;;;6.60;99.90;;;;;;5013422;28;20026;-83
2021/03/28 04:03:56;;;;;;;13.05;2.85;;;6.60;99.90;;;;;;5028488;28;20461;-84
2021/03/28 04:06:40;;;;;;;9.68;3.42;;;6.60;99.90;;;;;;5013402;28;20109;-84
2021/03/28 04:09:47;;;;;;;9.73;2.17;;;6.60;99.90;;;;;;5028704;28;20018;-84
2021/03/28 04:12:36;;;;;;;9.05;2.35;;;6.60;99.90;;;;;;5002250;28;20084;-84
2021/03/28 04:15:23;;;;;;;8.80;2.88;;;6.60;99.90;;;;;;5008958;28;20030;-84
2021/03/28 04:18:17;;;;;;;8.85;2.25;;;6.60;99.90;;;;;;5031580;28;20035;-84
2021/03/28 04:20:45;;;;;;;12.93;3.40;;;6.60;99.90;;;;;;5031682;28;20021;-84
2021/03/28 04:23:39;;;;;;;9.30;2.60;;;6.70;99.90;;;;;;5033044;28;20021;-84
2021/03/28 04:26:27;;;;;;;7.22;1.77;;;6.70;99.90;;;;;;5032904;28;20018;-84
2021/03/28 04:28:57;;;;;;;8.85;2.35;;;6.70;99.90;;;;;;5031589;28;20026;-84
2021/03/28 04:31:57;;;;;;;9.05;2.28;;;6.80;99.90;;;;;;5031746;28;20026;-84
2021/03/28 04:34:35;;;;;;;9.63;2.55;;;6.80;99.90;;;;;;5031516;28;20025;-84
2021/03/28 04:37:28;;;;;;;13.55;2.80;;;6.90;99.90;;;;;;5032916;28;20042;-84
2021/03/28 04:40:30;;;;;;;10.73;2.20;;;7.00;99.90;;;;;;5031304;28;20046;-84
2021/03/28 04:43:26;;;;;;;8.52;2.38;;;7.00;99.80;;;;;;5032789;28;20093;-84
2021/03/28 04:46:21;;;;;;;9.95;2.10;;;7.00;99.70;;;;;;5031530;28;20039;-84
2021/03/28 04:49:17;;;;;;;10.38;2.80;;;7.10;99.60;;;;;;5031517;28;20021;-84
2021/03/28 04:52:15;;;;;;;14.35;2.40;;;7.00;99.40;;;;;;5032593;28;20026;-84
2021/03/28 04:55:01;;;;;;;9.07;2.88;;;7.10;99.30;;;;;;5009580;28;20059;-84
2021/03/28 04:57:43;;;;;;;11.15;2.40;;;7.10;99.20;;;;;;5032608;28;20369;-84
2021/03/28 05:00:47;;;;;;;10.35;2.20;;;7.10;99.20;;;;;;5031518;28;20064;-84
2021/03/28 05:03:43;;;;;;;11.52;2.13;;;7.10;99.20;;;;;;5030884;28;20091;-84
2021/03/28 05:06:21;;;;;;;10.85;2.53;;;7.00;99.20;;;;;;5030159;28;20108;-84
2021/03/28 05:09:13;;;;;;;13.43;2.78;;;7.10;99.20;;;;;;5031834;28;20057;-84
2021/03/28 05:12:08;;;;;;;11.07;1.98;;;7.10;99.10;;;;;;5036557;28;20443;-84
2021/03/28 05:15:10;;;;;;;10.32;3.33;;;7.20;99.10;;;;;;5032962;28;20037;-84
2021/03/28 05:18:21;;;;;;;12.20;2.55;;;7.20;99.10;;;;;;5033729;28;20025;-84
2021/03/28 05:21:24;;;;;;;11.30;3.03;;;7.20;98.80;;;;;;5023434;28;20034;-83
2021/03/28 05:24:10;;;;;;;11.02;3.25;;;7.30;98.90;;;;;;5014777;28;20022;-84
2021/03/28 05:27:08;;;;;;;8.48;1.98;;;7.30;98.80;;;;;;5014923;28;20022;-84
2021/03/28 05:29:42;;;;;;;9.77;2.33;;;7.40;98.70;;;;;;4993069;28;20033;-84
2021/03/28 05:32:26;;;;;;;12.18;2.22;;;7.40;98.90;;;;;;5014978;28;20083;-84
2021/03/28 05:35:15;;;;;;;8.52;2.08;;;7.40;98.80;;;;;;5016063;28;20030;-84
2021/03/28 05:38:13;;;;;;;8.25;2.53;;;7.40;98.70;;;;;;5014643;28;20111;-84
2021/03/28 05:41:22;;;;;;;12.10;1.98;;;7.40;98.80;;;;;;5014616;28;20053;-84
2021/03/28 05:44:14;;;;;;;8.45;2.13;;;7.40;98.70;;;;;;5014593;28;20026;-84
2021/03/28 05:47:05;;;;;;;10.73;2.40;;;7.50;98.60;;;;;;5014567;28;20037;-84
2021/03/28 05:50:01;;;;;;;9.45;2.15;;;7.50;98.50;;;;;;5015787;28;20022;-84
2021/03/28 05:52:50;;;;;;;9.20;2.97;;;7.50;98.50;;;;;;5015573;28;20576;-84
2021/03/28 05:56:00;;;;;;;9.65;2.28;;;7.50;98.50;;;;;;5015865;28;20354;-84
2021/03/28 05:58:39;;;;;;;12.13;3.45;;;7.50;98.40;;;;;;5015751;28;20061;-84
2021/03/28 06:01:07;;;;;;;12.05;2.95;;;7.50;98.50;;;;;;5015711;28;20029;-84
2021/03/28 06:03:55;;;;;;;8.55;2.22;;;7.60;98.60;;;;;;5014446;28;20434;-84
2021/03/28 06:06:49;;;;;;;10.10;2.00;;;7.60;98.60;;;;;;5014235;28;20050;-84
2021/03/28 06:09:39;;;;;;;10.02;1.98;;;7.60;98.50;;;;;;5014200;28;20382;-84
2021/03/28 06:12:35;;;;;;;8.52;2.20;;;7.60;98.50;;;;;;5014309;28;20029;-84
2021/03/28 06:15:06;;;;;;;8.23;2.22;;;7.60;98.50;;;;;;5017715;28;20513;-84
2021/03/28 06:17:59;;;;;;;10.05;2.00;;;7.60;98.60;;;;;;5035141;28;20029;-83
2021/03/28 06:20:46;;;;;;;6.68;1.60;;;7.70;98.70;;;;;;5050149;28;20116;-84
2021/03/28 06:23:38;;;;;;;9.13;1.88;;;7.70;98.70;;;;;;5034868;28;20021;-83
2021/03/28 06:26:52;;;;;;;9.25;2.08;;;7.60;98.80;;;;;;5050270;28;20033;-83
2021/03/28 06:29:36;;;;;;;9.13;2.10;;;7.70;98.80;;;;;;5050173;28;20021;-83
2021/03/28 06:32:29;;;;;;;10.15;2.58;;;7.70;98.90;;;;;;5034950;28;20055;-84
2021/03/28 06:35:26;;;;;;;9.88;2.60;;;7.80;98.70;;;;;;5050058;28;20063;-83
2021/03/28 06:38:12;;;;;;;10.23;2.45;;;7.80;98.70;;;;;;5049973;28;20022;-83
2021/03/28 06:41:12;;;;;;;8.48;2.10;;;7.80;98.70;;;;;;5013531;28;20057;-84
2021/03/28 06:44:02;;;;;;;6.28;1.67;;;7.90;98.50;;;;;;5034685;28;20030;-84
2021/03/28 06:47:02;;;;;;;14.55;2.55;;;7.90;98.40;;;;;;5049937;28;20014;-83
2021/03/28 06:49:45;;;;;;;;;;;7.90;98.40;;;;;;5043677;28;20064;-85
2021/03/28 06:52:40;;;;;;;9.07;2.25;;;7.80;98.60;;;;;;5046442;28;19912;-87
2021/03/28 06:55:38;;;;;;;8.70;2.17;;;8.00;98.50;;;;;;5027803;28;20396;-86
2021/03/28 06:58:22;;;;;;;8.30;2.17;;;8.10;98.40;;;;;;5033411;28;20100;-86
2021/03/28 07:01:22;;;;;;;7.63;1.95;;;8.10;98.20;;;;;;5025296;28;20061;-86
2021/03/28 07:04:25;;;;;;;12.68;3.10;;;8.20;98.20;;;;;;5033615;28;20037;-86
2021/03/28 07:06:59;;;;;;;8.82;1.90;;;8.20;98.00;;;;;;5024160;28;20108;-86
2021/03/28 07:09:56;;;;;;;10.35;2.65;;;8.20;98.00;;;;;;5032168;28;20083;-86
2021/03/28 07:12:56;;;;;;;10.57;3.63;;;8.30;98.00;;;;;;5033686;28;20492;-86
2021/03/28 07:15:37;;;;;;;8.30;2.22;;;8.40;97.80;;;;;;5023898;28;20369;-86
2021/03/28 07:18:30;;;;;;;9.38;2.50;;;8.40;97.80;;;;;;5029405;28;20025;-87
2021/03/28 07:21:13;;;;;;;11.57;2.72;;;8.50;97.70;;;;;;5029888;28;20025;-85
2021/03/28 07:23:47;;;;;;;7.47;2.45;;;8.60;97.50;;;;;;5031510;28;20389;-85
2021/03/28 07:26:31;;;;;;;7.30;2.45;;;8.60;97.40;;;;;;5031771;28;20045;-85
2021/03/28 07:29:36;;;;;;;10.40;2.58;;;8.70;97.20;;;;;;5029552;28;20075;-85
2021/03/28 07:32:38;;;;;;;8.27;2.33;;;8.80;97.00;;;;;;5024312;28;20025;-85
2021/03/28 07:35:34;;;;;;;11.40;3.10;;;8.90;97.00;;;;;;5031891;28;20057;-85
2021/03/28 07:38:36;;;;;;;15.00;4.72;;;8.90;97.30;;;;;;5031146;28;20026;-84
2021/03/28 07:41:27;;;;;;;9.77;3.30;;;9.10;97.20;;;;;;5034352;28;20120;-85
2021/03/28 07:44:14;;;;;;;11.82;3.22;;;9.10;97.00;;;;;;5014825;28;20026;-85
2021/03/28 07:47:23;;;;;;;10.05;2.30;;;9.20;96.90;;;;;;5021949;28;20013;-85
2021/03/28 07:50:16;;;;;;;10.75;3.03;;;9.30;97.00;;;;;;5022326;28;20038;-85
2021/03/28 07:53:27;;;;;;;13.25;2.65;;;9.40;96.80;;;;;;5030272;28;20021;-85
2021/03/28 07:56:10;;;;;;;10.98;3.13;;;9.40;96.30;;;;;;5032786;28;20049;-85
2021/03/28 07:58:57;;;;;;;13.50;3.15;;;9.40;96.60;;;;;;5029104;28;20091;-85
2021/03/28 08:01:33;;;;;;;7.57;2.38;;;9.40;96.30;;;;;;5030129;28;20052;-85
2021/03/28 08:03:58;;;;;;;11.45;3.70;;;9.40;96.00;;;;;;5030876;28;20025;-85
2021/03/28 08:06:43;;;;;;;12.57;3.38;;;9.40;96.50;;;;;;5031544;28;20017;-85
2021/03/28 08:09:38;;;;;;;9.38;3.10;;;9.50;96.70;;;;;;5025299;28;20399;-85
2021/03/28 08:12:29;;;;;;;12.43;2.95;;;9.50;96.90;;;;;;5026811;28;20025;-85
2021/03/28 08:15:07;;;;;;;8.98;3.22;;;9.60;96.60;;;;;;5028131;28;20021;-85
2021/03/28 08:17:37;;;;;;;13.95;3.10;;;9.70;96.60;;;;;;5032886;28;20468;-85
2021/03/28 08:20:20;;;;;;;;;;;9.70;96.60;;;;;;5031797;28;20103;-86
2021/03/28 08:23:17;;;;;;;12.35;2.55;;;9.80;96.40;;;;;;5031849;28;19905;-85
2021/03/28 08:26:11;;;;;;;10.30;3.10;;;9.90;96.20;;;;;;5031649;28;20468;-85
2021/03/28 08:28:57;;;;;;;8.88;3.28;;;10.00;96.10;;;;;;5031774;28;20048;-86
2021/03/28 08:31:40;;;;;;;7.97;2.63;;;10.10;95.60;;;;;;5031894;28;20120;-85
2021/03/28 08:34:30;;;;;;;12.13;3.47;;;10.20;95.90;;;;;;5033061;28;20036;-85
2021/03/28 08:37:05;;;;;;;;;;;10.30;95.40;;;;;;5033646;28;20087;-85
2021/03/28 08:39:49;;;;;;;16.27;3.25;;;10.40;95.00;;;;;;5031339;28;19999;-84
2021/03/28 08:42:44;;;;;;;9.18;2.55;;;10.50;94.90;;;;;;5033143;28;20045;-86
2021/03/28 08:45:26;;;;;;;14.23;3.03;;;10.60;94.60;;;;;;5036894;28;20068;-83
2021/03/28 08:48:24;;;;;;;15.57;2.95;;;10.70;93.90;;;;;;5036028;28;20108;-85
2021/03/28 08:51:27;;;;;;;11.00;2.13;;;10.80;93.20;;;;;;5026002;28;20028;-87
2021/03/28 08:54:13;;;;;;;11.35;2.60;;;10.80;92.70;;;;;;5016715;28;20030;-85
2021/03/28 08:56:55;;;;;;;7.30;1.92;;;11.00;93.10;;;;;;5023365;28;20543;-83
2021/03/28 09:00:08;;;;;;;19.10;2.63;;;11.00;92.20;;;;;;5035780;28;20071;-86
2021/03/28 09:02:54;;;;;;;12.82;3.05;;;11.10;91.80;;;;;;5004412;28;20068;-85
2021/03/28 09:05:41;;;;;;;10.63;3.00;;;11.20;91.40;;;;;;5034770;28;20025;-85
2021/03/28 09:08:21;;;;;;;14.40;3.75;;;11.40;91.80;;;;;;5049710;28;20496;-83
2021/03/28 09:11:08;;;;;;;11.77;3.58;;;11.70;91.60;;;;;;5035154;28;20065;-83
2021/03/28 09:13:40;;;;;;;13.25;3.25;;;11.90;91.10;;;;;;5018016;28;20393;-83
2021/03/28 09:16:27;;;;;;;17.98;4.10;;;12.00;89.40;;;;;;5047012;28;20045;-83
2021/03/28 09:19:21;;;;;;;13.60;3.30;;;12.20;90.10;;;;;;5031773;28;20392;-84
2021/03/28 09:22:03;;;;;;;13.63;3.15;;;12.50;88.40;;;;;;5047237;28;20029;-84
2021/03/28 09:24:42;;;;;;;8.93;2.45;;;12.60;86.00;;;;;;5034952;28;20100;-83
2021/03/28 09:27:46;;;;;;;11.35;2.33;;;12.50;87.80;;;;;;5033481;28;20032;-81
2021/03/28 09:30:22;;;;;;;13.38;3.22;;;12.50;86.30;;;;;;5033071;28;20563;-80
2021/03/28 09:33:10;;;;;;;9.23;1.95;;;12.50;86.80;;;;;;5049060;28;20025;-82
2021/03/28 09:35:36;;;;;;;11.93;2.40;;;12.60;86.00;;;;;;5028670;28;20029;-81
2021/03/28 09:38:38;;;;;;;10.18;3.03;;;12.60;84.40;;;;;;5033549;28;20507;-81
2021/03/28 09:41:29;;;;;;;12.18;2.47;;;12.60;82.90;;;;;;5047258;28;20056;-81
2021/03/28 09:44:19;;;;;;;8.85;2.20;;;12.60;80.80;;;;;;5028448;28;20048;-81
2021/03/28 09:47:06;;;;;;;11.55;2.55;;;12.80;82.90;;;;;;5048271;28;20420;-83
2021/03/28 09:49:47;;;;;;;8.95;2.17;;;12.80;82.30;;;;;;5034730;28;20022;-83
2021/03/28 09:52:42;;;;;;;11.10;1.88;;;12.80;79.30;;;;;;5030091;28;20021;-83
2021/03/28 09:55:26;;;;;;;7.30;1.92;;;12.70;78.70;;;;;;5034412;28;20067;-84
2021/03/28 09:58:28;;;;;;;8.85;1.80;;;13.10;82.10;;;;;;5020057;28;20401;-84
2021/03/28 10:01:05;;;;;;;11.57;1.90;;;13.20;75.70;;;;;;5049508;28;20029;-84
2021/03/28 10:03:39;;;;;;;10.65;1.83;;;13.10;73.20;;;;;;5034920;28;20025;-84
2021/03/28 10:06:13;;;;;;;7.10;2.20;;;13.90;72.00;;;;;;5035483;28;20155;-84
2021/03/28 10:08:58;;;;;;;5.65;1.55;;;14.20;68.00;;;;;;5029924;28;20022;-81
2021/03/28 10:11:39;;;;;;;7.78;1.50;;;14.00;65.60;;;;;;5035395;28;20033;-83
2021/03/28 10:14:30;;;;;;;6.43;1.40;;;13.80;66.00;;;;;;5027953;28;20022;-83
2021/03/28 10:17:28;;;;;;;8.40;1.83;;;13.70;66.30;;;;;;5025783;28;20108;-83
2021/03/28 10:20:10;;;;;;;8.13;1.55;;;14.00;66.70;;;;;;5018555;28;20030;-82
2021/03/28 10:22:55;;;;;;;4.65;1.33;;;14.20;64.90;;;;;;5039176;28;20029;-82
2021/03/28 10:25:44;;;;;;;10.30;1.77;;;14.10;63.80;;;;;;5031267;28;20017;-82
2021/03/28 10:28:31;;;;;;;7.40;1.10;;;13.90;63.60;;;;;;5031637;28;20121;-81
2021/03/28 10:31:18;;;;;;;8.93;1.60;;;13.80;65.30;;;;;;5033274;28;20100;-82
2021/03/28 10:34:21;;;;;;;5.90;1.48;;;13.70;64.40;;;;;;5048249;28;20049;-84
2021/03/28 10:37:31;;;;;;;7.60;1.90;;;13.40;63.10;;;;;;5041394;28;20033;-83
2021/03/28 10:40:12;;;;;;;12.45;1.70;;;13.20;65.40;;;;;;5030886;28;20048;-84
2021/03/28 10:43:01;;;;;;;8.63;2.28;;;13.10;64.40;;;;;;5046773;28;20026;-84
2021/03/28 10:46:04;;;;;;;7.17;1.90;;;13.10;66.60;;;;;;5027420;28;20048;-84
2021/03/28 10:48:55;;;;;;;9.43;1.77;;;12.90;66.50;;;;;;5031686;28;20564;-84
2021/03/28 10:51:40;;;;;;;8.48;2.30;;;12.80;67.20;;;;;;5004950;28;20026;-83
2021/03/28 10:54:30;;;;;;;6.35;1.83;;;12.70;67.00;;;;;;5030784;28;20017;-84
2021/03/28 10:57:34;;;;;;;7.97;1.77;;;12.70;69.90;;;;;;5047268;28;20017;-84
2021/03/28 11:00:32;;;;;;;7.15;2.20;;;12.70;67.70;;;;;;5047700;28;20021;-85
2021/03/28 11:03:03;;;;;;;10.02;1.40;;;12.70;69.00;;;;;;5040706;28;20029;-84
2021/03/28 11:05:53;;;;;;;7.82;1.70;;;12.70;68.70;;;;;;5043407;28;20071;-84
2021/03/28 11:08:52;;;;;;;6.80;1.73;;;12.70;68.90;;;;;;5027711;28;20068;-83
2021/03/28 11:11:54;;;;;;;11.63;1.90;;;12.70;68.40;;;;;;5042716;28;20055;-83
2021/03/28 11:14:33;;;;;;;7.07;1.00;;;12.70;69.90;;;;;;5046735;28;20029;-82
2021/03/28 11:17:10;;;;;;;10.57;1.52;;;12.70;71.00;;;;;;5044878;28;20053;-83
2021/03/28 11:20:13;;;;;;;6.75;1.85;;;12.60;71.10;;;;;;5032067;28;20021;-83
2021/03/28 11:23:13;;;;;;;7.20;1.30;;;12.60;70.00;;;;;;5044952;28;20028;-83
2021/03/28 11:26:15;;;;;;;12.88;1.50;;;12.60;71.80;;;;;;5025561;28;20017;-83
2021/03/28 11:28:58;;;;;;;14.65;2.30;;;12.50;71.30;;;;;;5046663;28;20025;-83
2021/03/28 11:31:26;;;;;;;6.97;1.33;;;12.40;71.00;;;;;;5023722;28;20026;-82
2021/03/28 11:34:19;;;;;;;7.55;1.45;;;12.40;72.40;;;;;;5031431;28;20030;-82
2021/03/28 11:37:32;;;;;;;7.63;1.33;;;12.40;72.60;;;;;;5046424;28;20025;-82
2021/03/28 11:40:31;;;;;;;9.32;2.38;;;12.30;73.90;;;;;;4987670;28;20099;-82
2021/03/28 11:43:06;;;;;;;8.32;1.50;;;12.30;72.70;;;;;;5031076;28;20028;-83
2021/03/28 11:45:34;;;;;;;6.50;1.67;;;12.30;74.40;;;;;;5045543;28;20080;-84
2021/03/28 11:48:02;;;;;;;9.07;2.00;;;12.30;74.40;;;;;;5029007;28;20021;-84
2021/03/28 11:50:36;;;;;;;7.90;1.67;;;12.30;73.60;;;;;;5031468;28;20026;-83
2021/03/28 11:53:20;;;;;;;12.63;2.58;;;12.30;74.50;;;;;;5027676;28;20029;-84
2021/03/28 11:55:52;;;;;;;8.45;2.10;;;12.30;73.70;;;;;;5029019;28;20068;-84
2021/03/28 11:58:31;;;;;;;8.30;2.15;;;12.40;74.40;;;;;;5046455;28;20484;-84
2021/03/28 12:00:59;;;;;;;9.83;1.50;;;12.40;75.40;;;;;;5020592;28;20488;-82
2021/03/28 12:03:31;;;;;;;10.57;2.05;;;12.40;74.20;;;;;;5021197;28;20091;-82
2021/03/28 12:06:08;;;;;;;11.30;2.10;;;12.50;73.80;;;;;;5027262;28;20017;-83
2021/03/28 12:08:46;;;;;;;13.95;2.28;;;12.50;74.80;;;;;;5030325;28;20025;-82
2021/03/28 12:11:30;;;;;;;8.63;2.38;;;12.50;74.30;;;;;;5024734;28;20029;-83
2021/03/28 12:13:59;;;;;;;12.13;2.33;;;12.50;74.10;;;;;;5036980;28;20504;-84
2021/03/28 12:17:03;;;;;;;10.35;1.88;;;12.40;74.60;;;;;;5020361;28;20695;-83
2021/03/28 12:19:49;;;;;;;7.80;1.90;;;12.40;74.30;;;;;;5022513;28;20117;-83
2021/03/28 12:22:38;;;;;;;9.85;2.33;;;12.50;74.80;;;;;;5025301;28;20021;-83
2021/03/28 12:25:07;;;;;;;10.07;1.75;;;12.60;75.50;;;;;;5017744;28;20037;-83
2021/03/28 12:27:57;;;;;;;9.45;1.85;;;12.60;73.90;;;;;;5010860;28;20041;-83
2021/03/28 12:30:29;;;;;;;6.88;1.63;;;12.50;74.80;;;;;;5022720;28;20026;-83
2021/03/28 12:33:18;;;;;;;8.52;1.85;;;12.40;75.70;;;;;;5029556;28;20036;-83
2021/03/28 12:35:47;;;;;;;8.35;1.95;;;12.40;76.10;;;;;;5026136;28;20108;-83
2021/03/28 12:38:28;;;;;;;10.63;2.13;;;12.40;76.20;;;;;;5026980;28;20041;-83
2021/03/28 12:41:12;;;;;;;8.48;1.88;;;12.40;76.60;;;;;;5011260;28;20062;-83
2021/03/28 12:43:42;;;;;;;8.35;2.25;;;12.40;76.10;;;;;;5007019;28;20011;-83
2021/03/28 12:46:26;;;;;;;12.45;2.58;;;12.40;75.70;;;;;;4991070;28;20022;-83
2021/03/28 12:49:07;;;;;;;9.10;1.85;;;12.40;75.30;;;;;;4992868;28;20098;-83
2021/03/28 12:51:33;;;;;;;8.32;2.08;;;12.40;76.30;;;;;;4993278;28;20502;-82
2021/03/28 12:53:59;;;;;;;6.63;2.22;;;12.40;76.30;;;;;;4993201;28;20118;-82
2021/03/28 12:56:29;;;;;;;9.20;2.28;;;12.50;76.20;;;;;;5010314;28;20068;-83
2021/03/28 12:58:55;;;;;;;;;;;12.60;76.30;;;;;;5012043;28;20065;-83
2021/03/28 13:01:23;;;;;;;8.48;1.77;;;12.60;75.00;;;;;;5009122;28;19944;-85
2021/03/28 13:03:51;;;;;;;8.75;2.40;;;12.60;74.60;;;;;;5009678;28;20077;-84
2021/03/28 13:06:38;;;;;;;7.50;2.00;;;12.70;74.20;;;;;;5008870;28;20018;-82
2021/03/28 13:09:09;;;;;;;11.10;2.30;;;12.70;73.30;;;;;;5009348;28;20464;-82
2021/03/28 13:11:45;;;;;;;10.32;1.73;;;12.60;74.80;;;;;;5009231;28;20033;-83
2021/03/28 13:14:34;;;;;;;11.50;2.53;;;12.70;75.30;;;;;;5022312;28;20022;-82
2021/03/28 13:17:17;;;;;;;15.87;2.50;;;12.50;74.90;;;;;;5005580;28;20034;-83
2021/03/28 13:19:48;;;;;;;8.65;2.20;;;12.40;76.50;;;;;;5010297;28;20061;-83
2021/03/28 13:22:38;;;;;;;7.63;1.83;;;12.40;76.80;;;;;;5003158;28;20026;-82
2021/03/28 13:25:20;;;;;;;10.48;2.10;;;12.40;76.00;;;;;;5009525;28;20022;-82
2021/03/28 13:27:49;;;;;;;17.48;2.70;;;12.40;76.40;;;;;;4995672;28;20041;-82
2021/03/28 13:30:22;;;;;;;10.48;2.35;;;12.40;75.60;;;;;;5011869;28;20026;-82
2021/03/28 13:32:50;;;;;;;14.07;2.47;;;12.40;75.80;;;;;;5024551;28;20028;-82
2021/03/28 13:35:34;;;;;;;13.57;2.47;;;12.40;76.70;;;;;;5013396;28;20565;-81
2021/03/28 13:38:15;;;;;;;12.30;2.58;;;12.40;75.50;;;;;;5010260;28;20417;-81
2021/03/28 13:40:51;;;;;;;12.45;2.85;;;12.40;77.00;;;;;;5044689;28;20042;-81
2021/03/28 13:43:21;;;;;;;15.68;2.38;;;12.40;76.80;;;;;;5033091;28;20080;-83
2021/03/28 13:45:49;;;;;;;11.52;2.60;;;12.40;76.50;;;;;;5034172;28;20385;-82
2021/03/28 13:48:15;;;;;;;17.42;2.92;;;12.40;77.30;;;;;;5032545;28;20485;-82
2021/03/28 13:50:43;;;;;;;15.30;2.55;;;12.40;77.70;;;;;;5032635;28;20032;-82
2021/03/28 13:53:23;;;;;;;10.98;2.95;;;12.50;77.80;;;;;;5025534;28;20021;-83
2021/03/28 13:55:57;;;;;;;11.20;3.30;;;12.60;77.40;;;;;;5021752;28;20025;-83
2021/03/28 13:59:03;;;;;;;11.55;3.58;;;12.70;76.20;;;;;;5030757;28;20108;-83
2021/03/28 14:01:41;;;;;;;8.98;4.20;;;12.70;75.60;;;;;;5024425;28;20083;-84
2021/03/28 14:04:39;;;;;;;8.95;3.50;;;12.70;76.40;;;;;;5033292;28;20108;-83
2021/03/28 14:07:11;;;;;;;16.00;4.45;;;12.60;76.10;;;;;;5045377;28;20530;-82
2021/03/28 14:09:39;;;;;;;10.57;3.80;;;12.60;76.10;;;;;;5041434;28;20056;-83
2021/03/28 14:12:17;;;;;;;9.48;3.65;;;12.50;77.30;;;;;;5045304;28;20388;-81
2021/03/28 14:14:44;;;;;;;14.63;4.03;;;12.50;76.90;;;;;;5033795;28;20026;-82
2021/03/28 14:17:31;;;;;;;11.90;4.35;;;12.50;76.80;;;;;;5033298;28;20021;-82
2021/03/28 14:20:13;;;;;;;12.20;4.35;;;12.60;76.30;;;;;;5037427;28;20602;-83
2021/03/28 14:22:45;;;;;;;12.52;4.53;;;12.60;76.30;;;;;;5032657;28;20024;-83
2021/03/28 14:25:29;;;;;;;18.30;3.35;;;12.60;76.80;;;;;;5027940;28;20014;-81